CTN8Y LFML-LDDU
Flight info
| Callsign | CTN8Y |
|---|---|
| Flight time | 1h 28m |
| Altitude | 36000 |
| Route | NASIK P856 RAPED DCT PIGOS DCT EKSID DCT NOSTA DCT EGHIN/N0412F340 DCT BAGNO/N0427F390 DCT LIKNO DCT ASDOR/N0423F380 DCT EDUGI/N0425F390 DCT ELGUS DCT SIPAL |
| Aircraft | A320/M-SDE2E3FGHIRWXY/LB1 |
Departure
| Time | 2026-04-27 14:39 |
|---|---|
| Airport | Marseille Provence Airport (LFML) |
Arrival
| Time | 2026-04-27 16:07 |
|---|---|
| Airport | Dubrovnik Ruđer Bošković Airport (LDDU) |
| Time | Latitude | Longitude | Altitude | Speed | Heading |
|---|---|---|---|---|---|
| 2026-04-27 14:21 | 43.43924 | 5.22287 | 43 ft | 0 kts | 28° |
| 2026-04-27 14:32 | 43.43917 | 5.22281 | 43 ft | 3 kts | 28° |
| 2026-04-27 14:32 | 43.43906 | 5.22273 | 40 ft | 0 kts | 32° |
| 2026-04-27 14:32 | 43.43904 | 5.22271 | 40 ft | 4 kts | 32° |
| 2026-04-27 14:33 | 43.43879 | 5.22244 | 42 ft | 5 kts | 48° |
| 2026-04-27 14:33 | 43.43849 | 5.22208 | 43 ft | 6 kts | 2° |
| 2026-04-27 14:33 | 43.43845 | 5.22206 | 43 ft | 0 kts | 334° |
| 2026-04-27 14:34 | 43.43848 | 5.22203 | 43 ft | 2 kts | 334° |
| 2026-04-27 14:34 | 43.43903 | 5.22155 | 41 ft | 15 kts | 319° |
| 2026-04-27 14:34 | 43.44015 | 5.22002 | 37 ft | 31 kts | 314° |
| 2026-04-27 14:35 | 43.44111 | 5.21758 | 32 ft | 22 kts | 246° |
| 2026-04-27 14:35 | 43.44029 | 5.21701 | 33 ft | 11 kts | 211° |
| 2026-04-27 14:35 | 43.43966 | 5.21622 | 33 ft | 14 kts | 223° |
| 2026-04-27 14:35 | 43.43923 | 5.21498 | 32 ft | 16 kts | 288° |
| 2026-04-27 14:36 | 43.44005 | 5.21364 | 29 ft | 21 kts | 314° |
| 2026-04-27 14:36 | 43.44122 | 5.21195 | 26 ft | 27 kts | 313° |
| 2026-04-27 14:36 | 43.44263 | 5.20983 | 19 ft | 32 kts | 310° |
| 2026-04-27 14:36 | 43.44301 | 5.20806 | 17 ft | 0 kts | 242° |
| 2026-04-27 14:38 | 43.44288 | 5.20784 | 19 ft | 5 kts | 230° |
| 2026-04-27 14:38 | 43.44247 | 5.20749 | 18 ft | 9 kts | 189° |
| 2026-04-27 14:38 | 43.44156 | 5.20808 | 18 ft | 35 kts | 133° |
| 2026-04-27 14:39 | 43.43822 | 5.21282 | 33 ft | 100 kts | 134° |
| 2026-04-27 14:39 | 43.43169 | 5.22217 | 183 ft | 158 kts | 136° |
| 2026-04-27 14:39 | 43.42416 | 5.23277 | 1179 ft | 150 kts | 136° |
| 2026-04-27 14:39 | 43.41816 | 5.24382 | 2318 ft | 137 kts | 114° |
| 2026-04-27 14:40 | 43.41616 | 5.25597 | 3224 ft | 128 kts | 85° |
| 2026-04-27 14:40 | 43.41815 | 5.26919 | 3734 ft | 153 kts | 70° |
| 2026-04-27 14:40 | 43.42159 | 5.28369 | 4326 ft | 171 kts | 71° |
| 2026-04-27 14:40 | 43.42504 | 5.30070 | 4860 ft | 201 kts | 75° |
| 2026-04-27 14:41 | 43.42851 | 5.32173 | 4999 ft | 250 kts | 77° |
| 2026-04-27 14:41 | 43.43153 | 5.34661 | 4992 ft | 270 kts | 84° |
| 2026-04-27 14:41 | 43.43123 | 5.37244 | 4979 ft | 270 kts | 94° |
| 2026-04-27 14:41 | 43.42975 | 5.39827 | 5137 ft | 272 kts | 93° |
| 2026-04-27 14:42 | 43.42839 | 5.42444 | 5858 ft | 276 kts | 93° |
| 2026-04-27 14:42 | 43.42710 | 5.45083 | 7005 ft | 276 kts | 93° |
| 2026-04-27 14:42 | 43.42580 | 5.47712 | 8019 ft | 282 kts | 93° |
| 2026-04-27 14:42 | 43.42443 | 5.50432 | 9058 ft | 288 kts | 93° |
| 2026-04-27 14:43 | 43.42304 | 5.53202 | 10079 ft | 293 kts | 93° |
| 2026-04-27 14:43 | 43.42162 | 5.56062 | 10791 ft | 309 kts | 93° |
| 2026-04-27 14:43 | 43.42010 | 5.59127 | 11225 ft | 332 kts | 94° |
| 2026-04-27 14:43 | 43.41894 | 5.62380 | 11860 ft | 344 kts | 87° |
| 2026-04-27 14:44 | 43.42105 | 5.65678 | 12799 ft | 348 kts | 83° |
| 2026-04-27 14:44 | 43.42393 | 5.68991 | 13747 ft | 351 kts | 83° |
| 2026-04-27 14:44 | 43.42697 | 5.72367 | 14583 ft | 356 kts | 83° |
| 2026-04-27 14:44 | 43.42989 | 5.75726 | 15340 ft | 361 kts | 83° |
| 2026-04-27 14:45 | 43.43279 | 5.79190 | 16107 ft | 366 kts | 83° |
| 2026-04-27 14:45 | 43.43564 | 5.82699 | 16882 ft | 371 kts | 83° |
| 2026-04-27 14:45 | 43.43850 | 5.86263 | 17646 ft | 376 kts | 83° |
| 2026-04-27 14:45 | 43.44136 | 5.89869 | 18392 ft | 382 kts | 83° |
| 2026-04-27 14:46 | 43.44425 | 5.93528 | 19095 ft | 385 kts | 83° |
| 2026-04-27 14:46 | 43.44714 | 5.97206 | 19824 ft | 387 kts | 83° |
| 2026-04-27 14:46 | 43.45001 | 6.00859 | 20517 ft | 390 kts | 83° |
| 2026-04-27 14:46 | 43.45292 | 6.04580 | 21236 ft | 392 kts | 83° |
| 2026-04-27 14:47 | 43.45585 | 6.08334 | 21912 ft | 396 kts | 83° |
| 2026-04-27 14:47 | 43.45878 | 6.12131 | 22588 ft | 400 kts | 83° |
| 2026-04-27 14:47 | 43.46172 | 6.15958 | 23264 ft | 403 kts | 83° |
| 2026-04-27 14:47 | 43.46467 | 6.19820 | 23873 ft | 407 kts | 83° |
| 2026-04-27 14:48 | 43.46759 | 6.23667 | 24408 ft | 410 kts | 83° |
| 2026-04-27 14:48 | 43.47354 | 6.31562 | 25462 ft | 417 kts | 83° |
| 2026-04-27 14:48 | 43.47653 | 6.35565 | 25984 ft | 420 kts | 83° |
| 2026-04-27 14:49 | 43.47952 | 6.39592 | 26476 ft | 424 kts | 83° |
| 2026-04-27 14:49 | 43.48249 | 6.43593 | 26964 ft | 427 kts | 83° |
| 2026-04-27 14:49 | 43.48550 | 6.47679 | 27453 ft | 430 kts | 83° |
| 2026-04-27 14:49 | 43.48852 | 6.51795 | 27929 ft | 433 kts | 83° |
| 2026-04-27 14:50 | 43.49154 | 6.55942 | 28405 ft | 436 kts | 83° |
| 2026-04-27 14:50 | 43.49458 | 6.60119 | 28843 ft | 439 kts | 83° |
| 2026-04-27 14:50 | 43.49761 | 6.64321 | 29275 ft | 442 kts | 83° |
| 2026-04-27 14:50 | 43.50065 | 6.68545 | 29737 ft | 445 kts | 83° |
| 2026-04-27 14:51 | 43.50370 | 6.72802 | 30155 ft | 447 kts | 83° |
| 2026-04-27 14:51 | 43.50674 | 6.77080 | 30512 ft | 450 kts | 83° |
| 2026-04-27 14:51 | 43.50979 | 6.81378 | 30876 ft | 452 kts | 83° |
| 2026-04-27 14:51 | 43.51181 | 6.84246 | 31122 ft | 454 kts | 83° |
| 2026-04-27 14:52 | 43.51584 | 6.90005 | 31708 ft | 454 kts | 83° |
| 2026-04-27 14:52 | 43.51885 | 6.94331 | 32182 ft | 453 kts | 83° |
| 2026-04-27 14:52 | 43.52184 | 6.98655 | 32654 ft | 453 kts | 83° |
| 2026-04-27 14:52 | 43.52481 | 7.02971 | 33114 ft | 452 kts | 82° |
| 2026-04-27 14:53 | 43.52776 | 7.07289 | 33546 ft | 451 kts | 82° |
| 2026-04-27 14:53 | 43.53069 | 7.11596 | 33964 ft | 451 kts | 82° |
| 2026-04-27 14:53 | 43.53360 | 7.15895 | 34339 ft | 450 kts | 82° |
| 2026-04-27 14:53 | 43.53650 | 7.20191 | 34668 ft | 451 kts | 83° |
| 2026-04-27 14:54 | 43.53935 | 7.24446 | 34990 ft | 451 kts | 83° |
| 2026-04-27 14:54 | 43.54225 | 7.28802 | 35303 ft | 451 kts | 83° |
| 2026-04-27 14:54 | 43.54507 | 7.33054 | 35610 ft | 451 kts | 83° |
| 2026-04-27 14:54 | 43.54790 | 7.37360 | 35909 ft | 451 kts | 83° |
| 2026-04-27 14:55 | 43.55073 | 7.41677 | 36083 ft | 451 kts | 83° |
| 2026-04-27 14:55 | 43.55353 | 7.45983 | 36126 ft | 450 kts | 83° |
| 2026-04-27 14:55 | 43.55906 | 7.54565 | 36123 ft | 449 kts | 83° |
| 2026-04-27 14:56 | 43.56453 | 7.63159 | 36124 ft | 449 kts | 83° |
| 2026-04-27 14:56 | 43.56991 | 7.71701 | 36124 ft | 449 kts | 83° |
| 2026-04-27 14:57 | 43.57526 | 7.80297 | 36125 ft | 449 kts | 83° |
| 2026-04-27 14:57 | 43.58054 | 7.88890 | 36124 ft | 449 kts | 83° |
| 2026-04-27 14:58 | 43.58573 | 7.97428 | 36120 ft | 449 kts | 83° |
| 2026-04-27 14:58 | 43.59091 | 8.06071 | 36123 ft | 449 kts | 83° |
| 2026-04-27 14:59 | 43.59597 | 8.14615 | 36124 ft | 449 kts | 83° |
| 2026-04-27 14:59 | 43.60100 | 8.23220 | 36126 ft | 449 kts | 84° |
| 2026-04-27 15:00 | 43.60596 | 8.31820 | 36128 ft | 450 kts | 84° |
| 2026-04-27 15:00 | 43.61083 | 8.40384 | 36123 ft | 450 kts | 84° |
| 2026-04-27 15:01 | 43.61567 | 8.48990 | 36117 ft | 450 kts | 84° |
| 2026-04-27 15:01 | 43.62044 | 8.57604 | 36122 ft | 450 kts | 84° |
| 2026-04-27 15:02 | 43.62515 | 8.66231 | 36133 ft | 450 kts | 84° |
| 2026-04-27 15:02 | 43.62981 | 8.74867 | 36127 ft | 451 kts | 84° |
| 2026-04-27 15:03 | 43.63439 | 8.83502 | 36131 ft | 451 kts | 84° |
| 2026-04-27 15:03 | 43.63892 | 8.92150 | 36133 ft | 451 kts | 84° |
| 2026-04-27 15:04 | 43.64335 | 9.00742 | 36133 ft | 451 kts | 84° |
| 2026-04-27 15:04 | 43.64776 | 9.09411 | 36123 ft | 452 kts | 84° |
| 2026-04-27 15:05 | 43.65209 | 9.18066 | 36117 ft | 452 kts | 84° |
| 2026-04-27 15:05 | 43.65636 | 9.26739 | 36130 ft | 452 kts | 84° |
| 2026-04-27 15:06 | 43.66052 | 9.35314 | 35665 ft | 447 kts | 85° |
| 2026-04-27 15:06 | 43.66258 | 9.39591 | 35255 ft | 445 kts | 85° |
| 2026-04-27 15:06 | 43.66392 | 9.42418 | 35165 ft | 447 kts | 85° |
| 2026-04-27 15:07 | 43.66802 | 9.51089 | 35124 ft | 453 kts | 85° |
| 2026-04-27 15:07 | 43.67205 | 9.59772 | 35124 ft | 452 kts | 85° |
| 2026-04-27 15:08 | 43.67600 | 9.68449 | 35124 ft | 453 kts | 85° |
| 2026-04-27 15:08 | 43.67990 | 9.77142 | 35123 ft | 452 kts | 85° |
| 2026-04-27 15:09 | 43.68371 | 9.85765 | 35122 ft | 453 kts | 85° |
| 2026-04-27 15:09 | 43.68747 | 9.94455 | 35121 ft | 453 kts | 85° |
| 2026-04-27 15:10 | 43.69118 | 10.03154 | 35112 ft | 453 kts | 85° |
| 2026-04-27 15:10 | 43.69482 | 10.11873 | 35111 ft | 453 kts | 85° |
| 2026-04-27 15:11 | 43.69837 | 10.20529 | 35107 ft | 454 kts | 85° |
| 2026-04-27 15:11 | 43.70188 | 10.29237 | 35107 ft | 454 kts | 85° |
| 2026-04-27 15:12 | 43.70533 | 10.37959 | 35107 ft | 454 kts | 85° |
| 2026-04-27 15:12 | 43.70871 | 10.46685 | 35107 ft | 454 kts | 85° |
| 2026-04-27 15:13 | 43.71201 | 10.55363 | 35106 ft | 454 kts | 85° |
| 2026-04-27 15:13 | 43.71527 | 10.64103 | 35111 ft | 455 kts | 85° |
| 2026-04-27 15:14 | 43.71845 | 10.72829 | 35114 ft | 455 kts | 85° |
| 2026-04-27 15:14 | 43.72158 | 10.81592 | 35105 ft | 455 kts | 85° |
| 2026-04-27 15:15 | 43.72462 | 10.90326 | 35095 ft | 455 kts | 85° |
| 2026-04-27 15:15 | 43.72759 | 10.99017 | 35088 ft | 455 kts | 85° |
| 2026-04-27 15:16 | 43.73051 | 11.07759 | 35080 ft | 455 kts | 86° |
| 2026-04-27 15:16 | 43.73336 | 11.16486 | 35080 ft | 454 kts | 86° |
| 2026-04-27 15:17 | 43.73614 | 11.25196 | 35067 ft | 454 kts | 86° |
| 2026-04-27 15:17 | 43.73886 | 11.33932 | 35078 ft | 455 kts | 86° |
| 2026-04-27 15:18 | 43.74151 | 11.42691 | 35073 ft | 455 kts | 86° |
| 2026-04-27 15:18 | 43.74410 | 11.51438 | 35077 ft | 455 kts | 86° |
| 2026-04-27 15:19 | 43.74661 | 11.60132 | 35097 ft | 455 kts | 86° |
| 2026-04-27 15:19 | 43.74907 | 11.68886 | 35101 ft | 455 kts | 86° |
| 2026-04-27 15:20 | 43.75145 | 11.77644 | 35101 ft | 455 kts | 86° |
| 2026-04-27 15:20 | 43.75378 | 11.86402 | 35106 ft | 455 kts | 86° |
| 2026-04-27 15:21 | 43.75602 | 11.95103 | 35099 ft | 455 kts | 86° |
| 2026-04-27 15:21 | 43.75820 | 12.03855 | 35104 ft | 455 kts | 86° |
| 2026-04-27 15:22 | 43.76033 | 12.12624 | 35096 ft | 456 kts | 86° |
| 2026-04-27 15:22 | 43.76239 | 12.21390 | 35110 ft | 456 kts | 86° |
| 2026-04-27 15:23 | 43.76437 | 12.30107 | 35095 ft | 456 kts | 86° |
| 2026-04-27 15:23 | 43.76630 | 12.38886 | 35102 ft | 456 kts | 86° |
| 2026-04-27 15:24 | 43.76816 | 12.47666 | 35093 ft | 456 kts | 86° |
| 2026-04-27 15:24 | 43.76994 | 12.56444 | 35089 ft | 456 kts | 86° |
| 2026-04-27 15:25 | 43.77166 | 12.65181 | 35087 ft | 456 kts | 86° |
| 2026-04-27 15:25 | 43.77332 | 12.73965 | 35089 ft | 456 kts | 86° |
| 2026-04-27 15:26 | 43.77491 | 12.82736 | 35091 ft | 456 kts | 87° |
| 2026-04-27 15:26 | 43.77643 | 12.91509 | 35090 ft | 456 kts | 87° |
| 2026-04-27 15:27 | 43.77788 | 13.00234 | 35084 ft | 455 kts | 87° |
| 2026-04-27 15:27 | 43.77926 | 13.08993 | 35079 ft | 455 kts | 87° |
| 2026-04-27 15:28 | 43.78058 | 13.17754 | 35078 ft | 455 kts | 87° |
| 2026-04-27 15:28 | 43.78183 | 13.26505 | 35075 ft | 454 kts | 87° |
| 2026-04-27 15:29 | 43.78301 | 13.35244 | 35071 ft | 454 kts | 87° |
| 2026-04-27 15:29 | 43.78412 | 13.43938 | 35069 ft | 453 kts | 87° |
| 2026-04-27 15:30 | 43.78517 | 13.52679 | 35070 ft | 453 kts | 87° |
| 2026-04-27 15:30 | 43.78615 | 13.61407 | 35070 ft | 453 kts | 87° |
| 2026-04-27 15:31 | 43.78706 | 13.70083 | 35074 ft | 453 kts | 87° |
| 2026-04-27 15:31 | 43.78791 | 13.78817 | 35076 ft | 453 kts | 87° |
| 2026-04-27 15:32 | 43.78872 | 13.87503 | 35078 ft | 453 kts | 87° |
| 2026-04-27 15:32 | 43.78950 | 13.96229 | 35079 ft | 453 kts | 87° |
| 2026-04-27 15:33 | 43.79022 | 14.04965 | 35082 ft | 454 kts | 87° |
| 2026-04-27 15:33 | 43.78895 | 14.13727 | 35081 ft | 455 kts | 95° |
| 2026-04-27 15:34 | 43.77528 | 14.22247 | 35080 ft | 459 kts | 108° |
| 2026-04-27 15:34 | 43.75074 | 14.30407 | 35079 ft | 459 kts | 111° |
| 2026-04-27 15:35 | 43.72611 | 14.38567 | 35084 ft | 460 kts | 111° |
| 2026-04-27 15:35 | 43.70136 | 14.46728 | 35084 ft | 460 kts | 111° |
| 2026-04-27 15:36 | 43.67652 | 14.54874 | 35081 ft | 460 kts | 111° |
| 2026-04-27 15:36 | 43.65158 | 14.63020 | 35081 ft | 460 kts | 111° |
| 2026-04-27 15:37 | 43.62657 | 14.71162 | 35082 ft | 460 kts | 111° |
| 2026-04-27 15:37 | 43.60148 | 14.79303 | 35080 ft | 460 kts | 111° |
| 2026-04-27 15:38 | 43.57651 | 14.87382 | 35083 ft | 460 kts | 111° |
| 2026-04-27 15:38 | 43.55152 | 14.95537 | 35080 ft | 460 kts | 108° |
| 2026-04-27 15:39 | 43.53405 | 15.03993 | 35077 ft | 458 kts | 102° |
| 2026-04-27 15:39 | 43.51844 | 15.12456 | 35076 ft | 458 kts | 102° |
| 2026-04-27 15:40 | 43.50257 | 15.20971 | 35071 ft | 458 kts | 102° |
| 2026-04-27 15:40 | 43.48661 | 15.29485 | 35075 ft | 459 kts | 102° |
| 2026-04-27 15:41 | 43.47059 | 15.37991 | 35071 ft | 459 kts | 102° |
| 2026-04-27 15:41 | 43.45447 | 15.46511 | 35070 ft | 459 kts | 102° |
| 2026-04-27 15:42 | 43.43841 | 15.54970 | 35065 ft | 459 kts | 102° |
| 2026-04-27 15:42 | 43.42218 | 15.63473 | 35077 ft | 460 kts | 102° |
| 2026-04-27 15:43 | 43.40588 | 15.71977 | 35069 ft | 460 kts | 102° |
| 2026-04-27 15:43 | 43.38948 | 15.80495 | 35076 ft | 460 kts | 102° |
| 2026-04-27 15:44 | 43.37302 | 15.89011 | 35069 ft | 461 kts | 103° |
| 2026-04-27 15:44 | 43.35658 | 15.97476 | 35070 ft | 461 kts | 103° |
| 2026-04-27 15:45 | 43.33998 | 16.05988 | 35072 ft | 461 kts | 103° |
| 2026-04-27 15:45 | 43.33165 | 16.10243 | 34869 ft | 459 kts | 103° |
| 2026-04-27 15:45 | 43.32313 | 16.14476 | 34261 ft | 461 kts | 105° |
| 2026-04-27 15:46 | 43.31096 | 16.18589 | 33300 ft | 469 kts | 116° |
| 2026-04-27 15:46 | 43.29533 | 16.22559 | 32281 ft | 473 kts | 117° |
| 2026-04-27 15:46 | 43.27937 | 16.26528 | 31324 ft | 476 kts | 117° |
| 2026-04-27 15:46 | 43.26319 | 16.30497 | 30394 ft | 478 kts | 117° |
| 2026-04-27 15:47 | 43.24681 | 16.34482 | 29331 ft | 480 kts | 118° |
| 2026-04-27 15:47 | 43.23029 | 16.38483 | 28195 ft | 483 kts | 118° |
| 2026-04-27 15:47 | 43.21362 | 16.42507 | 27026 ft | 486 kts | 118° |
| 2026-04-27 15:47 | 43.19709 | 16.46492 | 25873 ft | 489 kts | 118° |
| 2026-04-27 15:48 | 43.18019 | 16.50560 | 24682 ft | 492 kts | 118° |
| 2026-04-27 15:48 | 43.16316 | 16.54652 | 23592 ft | 493 kts | 118° |
| 2026-04-27 15:48 | 43.14623 | 16.58716 | 22637 ft | 488 kts | 118° |
| 2026-04-27 15:49 | 43.11330 | 16.66606 | 20870 ft | 474 kts | 119° |
| 2026-04-27 15:49 | 43.09676 | 16.70565 | 20012 ft | 467 kts | 119° |
| 2026-04-27 15:49 | 43.08072 | 16.74403 | 19179 ft | 462 kts | 119° |
| 2026-04-27 15:49 | 43.06506 | 16.78141 | 18386 ft | 456 kts | 120° |
| 2026-04-27 15:50 | 43.04936 | 16.81882 | 17564 ft | 449 kts | 120° |
| 2026-04-27 15:50 | 43.03406 | 16.85519 | 17193 ft | 431 kts | 120° |
| 2026-04-27 15:50 | 43.01945 | 16.88987 | 17085 ft | 410 kts | 120° |
| 2026-04-27 15:50 | 43.00553 | 16.92285 | 16968 ft | 390 kts | 120° |
| 2026-04-27 15:51 | 42.99216 | 16.95453 | 16592 ft | 380 kts | 120° |
| 2026-04-27 15:51 | 42.97916 | 16.98531 | 16045 ft | 376 kts | 120° |
| 2026-04-27 15:51 | 42.96608 | 17.01623 | 15499 ft | 373 kts | 120° |
| 2026-04-27 15:51 | 42.95316 | 17.04676 | 14974 ft | 370 kts | 120° |
| 2026-04-27 15:52 | 42.94035 | 17.07696 | 14464 ft | 366 kts | 120° |
| 2026-04-27 15:52 | 42.92762 | 17.10695 | 13955 ft | 363 kts | 120° |
| 2026-04-27 15:52 | 42.91501 | 17.13665 | 13419 ft | 359 kts | 120° |
| 2026-04-27 15:52 | 42.90254 | 17.16598 | 12888 ft | 355 kts | 120° |
| 2026-04-27 15:53 | 42.89017 | 17.19505 | 12348 ft | 352 kts | 120° |
| 2026-04-27 15:53 | 42.87796 | 17.22373 | 11831 ft | 348 kts | 120° |
| 2026-04-27 15:53 | 42.86597 | 17.25183 | 11323 ft | 345 kts | 120° |
| 2026-04-27 15:53 | 42.85395 | 17.27999 | 10813 ft | 342 kts | 120° |
| 2026-04-27 15:54 | 42.84606 | 17.29848 | 10472 ft | 340 kts | 120° |
| 2026-04-27 15:54 | 42.83015 | 17.33570 | 9504 ft | 343 kts | 120° |
| 2026-04-27 15:54 | 42.82213 | 17.35447 | 8829 ft | 349 kts | 120° |
| 2026-04-27 15:54 | 42.80974 | 17.38337 | 7752 ft | 358 kts | 120° |
| 2026-04-27 15:55 | 42.79705 | 17.41297 | 7044 ft | 358 kts | 120° |
| 2026-04-27 15:55 | 42.78479 | 17.44155 | 6849 ft | 340 kts | 120° |
| 2026-04-27 15:55 | 42.77313 | 17.46868 | 6659 ft | 321 kts | 120° |
| 2026-04-27 15:55 | 42.76220 | 17.49409 | 6451 ft | 300 kts | 120° |
| 2026-04-27 15:56 | 42.75212 | 17.51750 | 6256 ft | 281 kts | 120° |
| 2026-04-27 15:56 | 42.74236 | 17.54018 | 5788 ft | 275 kts | 120° |
| 2026-04-27 15:56 | 42.73270 | 17.56261 | 5235 ft | 273 kts | 120° |
| 2026-04-27 15:56 | 42.72310 | 17.58486 | 4688 ft | 271 kts | 120° |
| 2026-04-27 15:57 | 42.71360 | 17.60692 | 4210 ft | 267 kts | 121° |
| 2026-04-27 15:57 | 42.70415 | 17.62879 | 4049 ft | 272 kts | 121° |
| 2026-04-27 15:57 | 42.69454 | 17.65100 | 4002 ft | 271 kts | 121° |
| 2026-04-27 15:57 | 42.68509 | 17.67285 | 4004 ft | 272 kts | 121° |
| 2026-04-27 15:58 | 42.67550 | 17.69500 | 4003 ft | 271 kts | 121° |
| 2026-04-27 15:58 | 42.66590 | 17.71715 | 4002 ft | 272 kts | 121° |
| 2026-04-27 15:58 | 42.65633 | 17.73922 | 4005 ft | 270 kts | 121° |
| 2026-04-27 15:58 | 42.64695 | 17.76084 | 3999 ft | 260 kts | 121° |
| 2026-04-27 15:59 | 42.63774 | 17.78207 | 3998 ft | 261 kts | 121° |
| 2026-04-27 15:59 | 42.62847 | 17.80339 | 4000 ft | 261 kts | 121° |
| 2026-04-27 15:59 | 42.61921 | 17.82469 | 3996 ft | 261 kts | 121° |
| 2026-04-27 15:59 | 42.61008 | 17.84567 | 4000 ft | 261 kts | 121° |
| 2026-04-27 16:00 | 42.60085 | 17.86687 | 4000 ft | 260 kts | 121° |
| 2026-04-27 16:00 | 42.59183 | 17.88757 | 4002 ft | 248 kts | 120° |
| 2026-04-27 16:00 | 42.58334 | 17.90704 | 4001 ft | 232 kts | 120° |
| 2026-04-27 16:00 | 42.57541 | 17.92522 | 3999 ft | 215 kts | 120° |
| 2026-04-27 16:01 | 42.56787 | 17.94248 | 4024 ft | 206 kts | 120° |
| 2026-04-27 16:01 | 42.56091 | 17.95841 | 3999 ft | 186 kts | 120° |
| 2026-04-27 16:01 | 42.55421 | 17.97375 | 4002 ft | 209 kts | 120° |
| 2026-04-27 16:01 | 42.54600 | 17.99256 | 4005 ft | 246 kts | 120° |
| 2026-04-27 16:02 | 42.53731 | 18.01240 | 4004 ft | 250 kts | 120° |
| 2026-04-27 16:02 | 42.52794 | 18.03380 | 4004 ft | 272 kts | 120° |
| 2026-04-27 16:02 | 42.51829 | 18.05583 | 4003 ft | 270 kts | 120° |
| 2026-04-27 16:02 | 42.50863 | 18.07783 | 4000 ft | 273 kts | 120° |
| 2026-04-27 16:03 | 42.49890 | 18.10001 | 3999 ft | 273 kts | 120° |
| 2026-04-27 16:03 | 42.48992 | 18.12266 | 4002 ft | 272 kts | 109° |
| 2026-04-27 16:03 | 42.48715 | 18.14775 | 3999 ft | 270 kts | 85° |
| 2026-04-27 16:03 | 42.49005 | 18.17293 | 3999 ft | 270 kts | 78° |
| 2026-04-27 16:04 | 42.49336 | 18.19806 | 4003 ft | 270 kts | 78° |
| 2026-04-27 16:04 | 42.49650 | 18.22231 | 4000 ft | 258 kts | 79° |
| 2026-04-27 16:04 | 42.49949 | 18.24567 | 3922 ft | 246 kts | 79° |
| 2026-04-27 16:04 | 42.50240 | 18.26826 | 3706 ft | 239 kts | 77° |
| 2026-04-27 16:05 | 42.50563 | 18.28954 | 3414 ft | 217 kts | 74° |
| 2026-04-27 16:05 | 42.50894 | 18.30753 | 3046 ft | 186 kts | 74° |
| 2026-04-27 16:05 | 42.51473 | 18.32131 | 2868 ft | 152 kts | 42° |
| 2026-04-27 16:05 | 42.52306 | 18.32896 | 2443 ft | 149 kts | 22° |
| 2026-04-27 16:06 | 42.53331 | 18.32908 | 1812 ft | 156 kts | 342° |
| 2026-04-27 16:06 | 42.54040 | 18.31997 | 1635 ft | 139 kts | 298° |
| 2026-04-27 16:06 | 42.54533 | 18.30910 | 1355 ft | 134 kts | 300° |
| 2026-04-27 16:06 | 42.54965 | 18.29796 | 961 ft | 129 kts | 296° |
| 2026-04-27 16:07 | 42.55364 | 18.28745 | 694 ft | 122 kts | 300° |
| 2026-04-27 16:07 | 42.55764 | 18.27763 | 533 ft | 112 kts | 299° |
| 2026-04-27 16:07 | 42.56075 | 18.27003 | 534 ft | 75 kts | 297° |
| 2026-04-27 16:07 | 42.56145 | 18.26603 | 533 ft | 34 kts | 245° |
| 2026-04-27 16:08 | 42.56117 | 18.26544 | 534 ft | 5 kts | 238° |
| 2026-04-27 16:08 | 42.56101 | 18.26463 | 534 ft | 10 kts | 262° |
| 2026-04-27 16:08 | 42.56070 | 18.26455 | 534 ft | 7 kts | 154° |
| 2026-04-27 16:08 | 42.56029 | 18.26465 | 534 ft | 1 kts | 204° |
| 2026-04-27 16:09 | 42.56022 | 18.26462 | 534 ft | 0 kts | 199° |